Time;durP1;ratioP1;P1;durP2;ratioP2;P2;SDS_P1;SDS_P2;PMS_P1;PMS_P2;Temp;Humidity;BMP_temperature;BMP_pressure;BME280_temperature;BME280_humidity;BME280_pressure;Samples;Min_cycle;Max_cycle;Signal;HPM_P1;HPM_P2
2021/04/12 00:07:27;;;;;;;8.20;7.15;;;;;;;;;;4522547;28;20141;-59
2021/04/12 00:09:56;;;;;;;8.90;7.68;;;;;;;;;;4194818;34;20189;-60
2021/04/12 00:12:28;;;;;;;8.52;7.55;;;;;;;;;;4218679;34;20121;-60
2021/04/12 00:14:58;;;;;;;9.95;8.43;;;;;;;;;;4206060;34;20133;-60
2021/04/12 00:17:35;;;;;;;8.93;7.75;;;;;;;;;;4194678;34;20140;-59
2021/04/12 00:20:05;;;;;;;8.57;7.68;;;;;;;;;;4205942;34;20212;-58
2021/04/12 00:22:53;;;;;;;9.05;7.45;;;;;;;;;;4205944;34;20097;-59
2021/04/12 00:25:51;;;;;;;8.38;7.43;;;;;;;;;;4218763;34;20102;-58
2021/04/12 00:28:23;;;;;;;9.30;8.05;;;;;;;;;;4146156;34;20145;-58
2021/04/12 00:30:54;;;;;;;9.25;7.80;;;;;;;;;;4205901;34;20201;-59
2021/04/12 00:33:24;;;;;;;8.48;7.30;;;;;;;;;;4205783;34;20125;-59
2021/04/12 00:36:11;;;;;;;8.05;7.12;;;;;;;;;;4205817;34;20480;-58
2021/04/12 00:38:49;;;;;;;8.10;7.22;;;;;;;;;;4206143;34;20224;-58
2021/04/12 00:41:21;;;;;;;8.13;7.32;;;;;;;;;;4206309;34;20283;-58
2021/04/12 00:43:59;;;;;;;8.65;7.70;;;;;;;;;;4205708;34;20092;-58
2021/04/12 00:46:49;;;;;;;9.07;7.35;;;;;;;;;;4218479;34;20180;-58
2021/04/12 00:49:31;;;;;;;10.27;7.72;;;;;;;;;;4205639;34;20140;-58
2021/04/12 00:52:18;;;;;;;8.50;7.70;;;;;;;;;;4218509;34;20113;-58
2021/04/12 00:54:49;;;;;;;7.97;7.18;;;;;;;;;;4218529;34;20205;-58
2021/04/12 00:57:36;;;;;;;9.23;7.97;;;;;;;;;;4218360;34;20105;-58
2021/04/12 01:00:10;;;;;;;9.18;6.47;;;;;;;;;;4205539;34;20140;-58
2021/04/12 01:02:51;;;;;;;8.63;6.47;;;;;;;;;;4218433;34;20105;-58
2021/04/12 01:05:56;;;;;;;9.43;7.25;;;;;;;;;;4205725;34;20108;-56
2021/04/12 01:08:58;;;;;;;9.48;7.05;;;;;;;;;;4133816;34;20574;-58
2021/04/12 01:11:58;;;;;;;11.15;7.87;;;;;;;;;;4124946;34;20135;-58
2021/04/12 01:14:58;;;;;;;9.68;7.50;;;;;;;;;;4215944;34;20113;-59
2021/04/12 01:17:27;;;;;;;7.78;6.97;;;;;;;;;;4220397;33;20303;-57
2021/04/12 01:20:14;;;;;;;8.20;7.37;;;;;;;;;;4220304;34;20205;-57
2021/04/12 01:23:16;;;;;;;8.98;7.70;;;;;;;;;;4220477;33;20128;-58
2021/04/12 01:26:19;;;;;;;8.48;6.90;;;;;;;;;;4220229;34;20136;-57
2021/04/12 01:29:10;;;;;;;10.02;6.78;;;;;;;;;;4220278;34;20456;-59
2021/04/12 01:32:08;;;;;;;9.93;7.82;;;;;;;;;;4220101;33;20203;-58
2021/04/12 01:35:05;;;;;;;8.40;7.40;;;;;;;;;;4220242;34;20131;-58
2021/04/12 01:37:52;;;;;;;10.05;6.57;;;;;;;;;;4220301;33;20342;-59
2021/04/12 01:40:45;;;;;;;8.88;6.00;;;;;;;;;;4207556;34;20085;-58
2021/04/12 01:43:13;;;;;;;7.75;6.40;;;;;;;;;;4207340;34;20174;-58
2021/04/12 01:45:46;;;;;;;12.95;6.78;;;;;;;;;;4220138;34;20555;-58
2021/04/12 01:48:40;;;;;;;7.30;6.57;;;;;;;;;;4207109;34;20116;-59
2021/04/12 01:51:20;;;;;;;7.80;6.60;;;;;;;;;;4220189;34;20129;-58
2021/04/12 01:54:10;;;;;;;8.02;6.90;;;;;;;;;;4207338;34;20105;-58
2021/04/12 01:56:58;;;;;;;11.35;6.80;;;;;;;;;;4220032;34;20536;-58
2021/04/12 01:59:29;;;;;;;8.43;6.50;;;;;;;;;;4220139;34;20121;-58
2021/04/12 02:02:29;;;;;;;7.95;7.10;;;;;;;;;;4206873;34;20489;-59
2021/04/12 02:05:22;;;;;;;7.95;7.10;;;;;;;;;;4219824;34;20133;-58
2021/04/12 02:08:09;;;;;;;8.05;6.62;;;;;;;;;;4219701;34;20114;-58
2021/04/12 02:10:45;;;;;;;8.05;7.05;;;;;;;;;;4206881;34;20556;-59
2021/04/12 02:13:40;;;;;;;8.90;6.45;;;;;;;;;;4202333;34;20552;-59
2021/04/12 02:16:27;;;;;;;8.93;7.53;;;;;;;;;;4206870;34;20100;-60
2021/04/12 02:18:59;;;;;;;8.07;6.45;;;;;;;;;;4219796;34;20141;-59
2021/04/12 02:21:28;;;;;;;8.43;6.75;;;;;;;;;;4219869;34;20120;-58
2021/04/12 02:24:21;;;;;;;8.27;6.87;;;;;;;;;;4206252;34;20528;-58
2021/04/12 02:27:18;;;;;;;8.90;6.93;;;;;;;;;;4206720;34;20326;-58
2021/04/12 02:29:50;;;;;;;10.57;7.10;;;;;;;;;;4207822;34;20395;-59
2021/04/12 02:32:43;;;;;;;9.50;7.20;;;;;;;;;;4206743;34;20461;-59
2021/04/12 02:35:32;;;;;;;11.93;7.20;;;;;;;;;;4219697;34;20190;-60
2021/04/12 02:38:29;;;;;;;9.32;7.20;;;;;;;;;;4207181;34;20114;-60
2021/04/12 02:41:32;;;;;;;9.35;7.07;;;;;;;;;;4206650;34;20136;-58
2021/04/12 02:44:14;;;;;;;10.90;7.55;;;;;;;;;;4206742;34;20125;-60
2021/04/12 02:47:34;;;;;;;8.45;7.05;;;;;;;;;;4206933;34;20453;-60
2021/04/12 02:50:15;;;;;;;9.80;6.75;;;;;;;;;;4176043;34;20090;-59
2021/04/12 02:52:50;;;;;;;9.23;6.70;;;;;;;;;;4219057;34;20192;-61
2021/04/12 02:55:48;;;;;;;12.35;7.68;;;;;;;;;;4219417;34;20101;-59
2021/04/12 02:58:45;;;;;;;12.80;7.45;;;;;;;;;;4191690;34;20101;-59
2021/04/12 03:01:36;;;;;;;12.93;8.77;;;;;;;;;;4219229;34;20144;-59
2021/04/12 03:04:04;;;;;;;10.05;7.45;;;;;;;;;;4208489;34;20557;-59
2021/04/12 03:07:03;;;;;;;8.57;7.30;;;;;;;;;;4206356;34;20124;-59
2021/04/12 03:09:39;;;;;;;9.27;7.72;;;;;;;;;;4202518;34;20125;-59
2021/04/12 03:12:41;;;;;;;8.40;7.25;;;;;;;;;;4219173;34;20131;-61
2021/04/12 03:15:10;;;;;;;10.70;7.78;;;;;;;;;;4205597;34;20472;-61
2021/04/12 03:18:15;;;;;;;9.15;7.47;;;;;;;;;;4219147;34;20147;-59
2021/04/12 03:20:51;;;;;;;10.27;7.90;;;;;;;;;;4206323;34;20116;-61
2021/04/12 03:23:29;;;;;;;8.55;7.65;;;;;;;;;;4219300;34;20105;-59
2021/04/12 03:26:04;;;;;;;8.65;7.75;;;;;;;;;;4219168;34;20094;-59
2021/04/12 03:28:48;;;;;;;12.25;8.45;;;;;;;;;;4219276;34;20102;-59
2021/04/12 03:31:26;;;;;;;11.35;7.82;;;;;;;;;;4219098;34;20644;-60
2021/04/12 03:34:07;;;;;;;11.85;8.23;;;;;;;;;;4219292;34;20097;-60
2021/04/12 03:36:39;;;;;;;8.60;7.70;;;;;;;;;;4218518;34;20541;-60
2021/04/12 03:39:28;;;;;;;11.15;8.52;;;;;;;;;;4219019;34;20204;-60
2021/04/12 03:42:25;;;;;;;10.68;8.40;;;;;;;;;;4206829;34;20116;-59
2021/04/12 03:45:25;;;;;;;11.73;8.95;;;;;;;;;;4219042;34;20490;-59
2021/04/12 03:48:10;;;;;;;9.43;7.90;;;;;;;;;;4219077;34;20133;-59
2021/04/12 03:51:01;;;;;;;9.30;7.95;;;;;;;;;;4195729;34;20105;-59
2021/04/12 03:53:51;;;;;;;9.15;8.25;;;;;;;;;;4219252;34;20094;-58
2021/04/12 03:56:41;;;;;;;9.75;8.18;;;;;;;;;;4206663;34;20125;-59
2021/04/12 03:59:18;;;;;;;8.38;7.32;;;;;;;;;;4202631;34;20184;-59
2021/04/12 04:02:14;;;;;;;9.40;7.40;;;;;;;;;;4218847;34;20458;-60
2021/04/12 04:04:56;;;;;;;8.77;6.90;;;;;;;;;;4219130;34;20228;-60
2021/04/12 04:07:23;;;;;;;14.15;7.90;;;;;;;;;;4205815;34;20089;-60
2021/04/12 04:10:17;;;;;;;8.95;7.37;;;;;;;;;;4205888;34;20118;-60
2021/04/12 04:12:50;;;;;;;10.60;8.18;;;;;;;;;;4218660;34;20110;-60
2021/04/12 04:15:27;;;;;;;10.98;6.65;;;;;;;;;;4206016;34;20090;-60
2021/04/12 04:18:07;;;;;;;8.98;7.78;;;;;;;;;;4205955;34;20553;-59
2021/04/12 04:20:46;;;;;;;8.95;7.90;;;;;;;;;;4205884;34;20445;-60
2021/04/12 04:23:42;;;;;;;10.52;7.45;;;;;;;;;;4218654;34;20268;-60
2021/04/12 04:26:38;;;;;;;10.65;7.47;;;;;;;;;;4218860;34;20188;-60
2021/04/12 04:29:26;;;;;;;9.63;8.50;;;;;;;;;;4205796;34;20124;-60
2021/04/12 04:32:10;;;;;;;8.15;7.28;;;;;;;;;;4218370;34;20109;-59
2021/04/12 04:34:39;;;;;;;9.93;7.47;;;;;;;;;;4218821;34;20121;-59
2021/04/12 04:37:30;;;;;;;8.50;7.55;;;;;;;;;;4218426;34;20113;-59
2021/04/12 04:40:10;;;;;;;10.50;8.35;;;;;;;;;;4218633;34;20177;-59
2021/04/12 04:42:55;;;;;;;10.35;8.52;;;;;;;;;;4205547;34;20529;-59
2021/04/12 04:45:32;;;;;;;10.55;9.32;;;;;;;;;;4218800;34;20549;-60
2021/04/12 04:48:30;;;;;;;10.15;8.90;;;;;;;;;;4194232;34;20201;-59
2021/04/12 04:51:14;;;;;;;8.98;7.95;;;;;;;;;;4207028;34;20143;-59
2021/04/12 04:53:49;;;;;;;11.12;8.10;;;;;;;;;;4218589;34;20136;-60
2021/04/12 04:56:34;;;;;;;10.63;8.05;;;;;;;;;;4218282;34;20117;-59
2021/04/12 04:59:18;;;;;;;11.20;8.35;;;;;;;;;;4218336;34;20098;-59
2021/04/12 05:01:53;;;;;;;13.18;8.95;;;;;;;;;;4218128;34;20136;-59
2021/04/12 05:04:30;;;;;;;9.25;7.10;;;;;;;;;;4205434;34;20125;-59
2021/04/12 05:07:18;;;;;;;14.52;9.10;;;;;;;;;;4204117;34;20582;-59
2021/04/12 05:10:03;;;;;;;10.55;8.30;;;;;;;;;;4205877;34;20105;-59
2021/04/12 05:12:48;;;;;;;9.75;7.95;;;;;;;;;;4218220;34;20438;-59
2021/04/12 05:15:23;;;;;;;11.63;8.77;;;;;;;;;;4205258;34;20260;-59
2021/04/12 05:17:59;;;;;;;11.07;7.60;;;;;;;;;;4218079;34;20121;-59
2021/04/12 05:21:02;;;;;;;11.07;6.53;;;;;;;;;;4205485;34;20255;-59
2021/04/12 05:23:51;;;;;;;13.13;7.45;;;;;;;;;;4218289;34;20125;-59
2021/04/12 05:26:47;;;;;;;14.02;7.97;;;;;;;;;;4217993;34;20185;-60
2021/04/12 05:29:58;;;;;;;13.05;8.70;;;;;;;;;;4207103;34;20502;-60
2021/04/12 05:32:52;;;;;;;14.00;8.52;;;;;;;;;;4205209;34;20453;-60
2021/04/12 05:35:39;;;;;;;10.15;8.00;;;;;;;;;;4217962;34;20120;-60
2021/04/12 05:38:17;;;;;;;11.55;8.90;;;;;;;;;;4194267;34;20136;-60
2021/04/12 05:40:43;;;;;;;13.20;8.82;;;;;;;;;;4217921;34;20129;-60
2021/04/12 05:43:22;;;;;;;16.60;9.93;;;;;;;;;;4217690;34;20627;-60
2021/04/12 05:46:05;;;;;;;13.68;8.43;;;;;;;;;;4204921;34;20105;-59
2021/04/12 05:48:52;;;;;;;13.93;9.15;;;;;;;;;;4217789;34;20128;-60
2021/04/12 05:51:37;;;;;;;13.48;8.80;;;;;;;;;;4217617;34;20104;-59
2021/04/12 05:54:22;;;;;;;17.30;10.02;;;;;;;;;;4217670;34;20176;-60
2021/04/12 05:57:16;;;;;;;12.68;8.80;;;;;;;;;;4205282;34;20113;-60
2021/04/12 06:00:10;;;;;;;12.40;9.18;;;;;;;;;;4206534;34;20635;-60
2021/04/12 06:02:36;;;;;;;14.45;10.15;;;;;;;;;;4206915;34;20185;-60
2021/04/12 06:05:10;;;;;;;13.57;9.52;;;;;;;;;;4219629;34;20125;-59
2021/04/12 06:07:42;;;;;;;13.90;10.15;;;;;;;;;;4207280;34;20113;-59
2021/04/12 06:10:16;;;;;;;14.65;10.65;;;;;;;;;;4219722;34;20108;-60
2021/04/12 06:13:12;;;;;;;14.05;10.20;;;;;;;;;;4219804;34;20109;-60
2021/04/12 06:16:02;;;;;;;14.98;9.77;;;;;;;;;;4219790;34;20105;-60
2021/04/12 06:18:28;;;;;;;13.75;9.82;;;;;;;;;;4206688;34;20149;-60
2021/04/12 06:21:21;;;;;;;12.37;9.65;;;;;;;;;;4219500;34;20128;-60
2021/04/12 06:24:05;;;;;;;13.43;9.80;;;;;;;;;;4219791;34;20461;-60
2021/04/12 06:27:01;;;;;;;14.95;10.43;;;;;;;;;;4219610;34;20123;-60
2021/04/12 06:30:01;;;;;;;14.15;9.20;;;;;;;;;;4219568;34;20544;-60
2021/04/12 06:32:44;;;;;;;16.98;10.00;;;;;;;;;;4206827;34;20094;-60
2021/04/12 06:35:25;;;;;;;14.80;11.07;;;;;;;;;;4219580;34;20120;-60
2021/04/12 06:38:18;;;;;;;12.77;10.38;;;;;;;;;;4219401;34;20136;-60
2021/04/12 06:41:08;;;;;;;14.25;11.75;;;;;;;;;;4219407;34;20106;-60
2021/04/12 06:43:51;;;;;;;13.52;10.93;;;;;;;;;;4219460;34;20128;-61
2021/04/12 06:46:39;;;;;;;13.93;10.02;;;;;;;;;;4206498;34;20220;-59
2021/04/12 06:49:39;;;;;;;16.50;10.63;;;;;;;;;;4219425;34;20093;-60
2021/04/12 06:52:17;;;;;;;14.05;10.88;;;;;;;;;;4208040;34;20177;-59
2021/04/12 06:55:20;;;;;;;14.55;9.48;;;;;;;;;;4219278;34;20450;-60
2021/04/12 06:58:24;;;;;;;13.30;9.52;;;;;;;;;;4219239;34;20212;-60
2021/04/12 07:01:04;;;;;;;13.15;9.82;;;;;;;;;;4219158;34;20124;-59
2021/04/12 07:03:55;;;;;;;16.45;9.63;;;;;;;;;;4206293;34;20553;-61
2021/04/12 07:06:41;;;;;;;14.82;9.93;;;;;;;;;;4219257;34;20529;-60
2021/04/12 07:09:25;;;;;;;12.52;9.77;;;;;;;;;;4206989;34;20125;-60
2021/04/12 07:11:50;;;;;;;16.17;9.35;;;;;;;;;;4206637;34;20415;-60
2021/04/12 07:14:44;;;;;;;12.25;9.32;;;;;;;;;;4219251;34;20117;-60
2021/04/12 07:17:51;;;;;;;14.45;9.57;;;;;;;;;;4219111;34;20090;-59
2021/04/12 07:20:38;;;;;;;13.20;9.65;;;;;;;;;;4206552;34;20602;-58
2021/04/12 07:23:19;;;;;;;15.48;9.70;;;;;;;;;;4206129;34;20129;-60
2021/04/12 07:26:19;;;;;;;17.27;9.65;;;;;;;;;;4219528;34;20181;-58
2021/04/12 07:29:10;;;;;;;15.32;10.90;;;;;;;;;;4206089;34;20121;-60
2021/04/12 07:32:14;;;;;;;14.60;10.52;;;;;;;;;;4219197;34;20213;-59
2021/04/12 07:35:17;;;;;;;13.57;10.27;;;;;;;;;;4168516;34;20144;-60
2021/04/12 07:38:11;;;;;;;19.23;11.48;;;;;;;;;;4219100;34;20117;-60
2021/04/12 07:41:14;;;;;;;14.38;10.18;;;;;;;;;;4208067;34;20438;-60
2021/04/12 07:43:46;;;;;;;15.52;11.48;;;;;;;;;;4218932;34;20121;-59
2021/04/12 07:46:22;;;;;;;13.77;9.70;;;;;;;;;;4218969;34;20269;-59
2021/04/12 07:49:06;;;;;;;16.62;11.30;;;;;;;;;;4218977;34;20543;-59
2021/04/12 07:51:53;;;;;;;17.10;11.05;;;;;;;;;;4219122;34;20105;-60
2021/04/12 07:54:43;;;;;;;16.30;10.10;;;;;;;;;;4205971;34;20112;-60
2021/04/12 07:57:32;;;;;;;13.80;9.48;;;;;;;;;;4218841;34;20163;-60
2021/04/12 08:00:26;;;;;;;13.27;9.23;;;;;;;;;;4205971;34;20129;-58
2021/04/12 08:03:03;;;;;;;13.50;8.80;;;;;;;;;;4218383;34;20105;-58
2021/04/12 08:06:05;;;;;;;15.38;10.18;;;;;;;;;;4218993;34;20099;-59
2021/04/12 08:08:42;;;;;;;19.20;9.68;;;;;;;;;;4194112;34;20140;-59
2021/04/12 08:11:16;;;;;;;11.82;8.40;;;;;;;;;;4206710;34;20120;-58
2021/04/12 08:14:13;;;;;;;17.70;9.00;;;;;;;;;;4205747;34;20105;-60
2021/04/12 08:17:16;;;;;;;12.48;8.93;;;;;;;;;;4218738;34;20100;-59
2021/04/12 08:20:17;;;;;;;14.05;9.45;;;;;;;;;;4218817;34;20116;-59
2021/04/12 08:23:05;;;;;;;16.15;9.15;;;;;;;;;;4205153;34;20453;-59
2021/04/12 08:25:52;;;;;;;13.00;7.10;;;;;;;;;;4195744;34;20446;-58
2021/04/12 08:28:34;;;;;;;10.32;6.90;;;;;;;;;;4218594;34;20565;-59
2021/04/12 08:31:10;;;;;;;13.05;8.63;;;;;;;;;;4218711;34;20796;-60
2021/04/12 08:33:59;;;;;;;17.42;8.73;;;;;;;;;;4205796;34;20112;-60
2021/04/12 08:36:47;;;;;;;13.45;8.65;;;;;;;;;;4205541;34;20132;-58
2021/04/12 08:39:30;;;;;;;16.50;8.38;;;;;;;;;;4218610;34;20128;-58
2021/04/12 08:42:23;;;;;;;16.23;8.88;;;;;;;;;;4205729;34;20111;-58
2021/04/12 08:45:04;;;;;;;16.25;9.32;;;;;;;;;;4207502;34;20534;-60
2021/04/12 08:48:03;;;;;;;12.48;7.45;;;;;;;;;;4205364;34;20462;-56
2021/04/12 08:50:41;;;;;;;13.93;8.05;;;;;;;;;;4207489;34;20169;-59
2021/04/12 08:53:12;;;;;;;13.93;9.68;;;;;;;;;;4218458;34;20445;-59
2021/04/12 08:56:12;;;;;;;11.52;8.60;;;;;;;;;;4205369;34;20105;-60
2021/04/12 08:59:12;;;;;;;16.62;8.95;;;;;;;;;;4218219;34;20597;-59
2021/04/12 09:02:15;;;;;;;13.18;7.97;;;;;;;;;;4218034;34;20151;-59
2021/04/12 09:05:12;;;;;;;11.10;7.60;;;;;;;;;;4218273;34;20121;-60
2021/04/12 09:08:23;;;;;;;15.30;8.38;;;;;;;;;;4187884;34;20100;-60
2021/04/12 09:11:27;;;;;;;13.25;8.93;;;;;;;;;;4215882;34;20148;-61
2021/04/12 09:14:33;;;;;;;10.98;8.10;;;;;;;;;;4218367;34;20090;-60
2021/04/12 09:17:02;;;;;;;;;;;;;;;;;;4218620;34;20209;-58
2021/04/12 09:19:40;;;;;;;13.52;8.80;;;;;;;;;;4218238;34;19984;-60
2021/04/12 09:22:25;;;;;;;13.10;8.10;;;;;;;;;;4205047;34;20199;-59
2021/04/12 09:25:08;;;;;;;11.82;7.78;;;;;;;;;;4218110;34;20113;-59
2021/04/12 09:27:34;;;;;;;11.15;8.38;;;;;;;;;;4205201;34;20537;-59
2021/04/12 09:30:25;;;;;;;15.05;8.73;;;;;;;;;;4217740;34;20196;-58
2021/04/12 09:33:16;;;;;;;15.15;8.55;;;;;;;;;;4218666;34;20216;-60
2021/04/12 09:36:12;;;;;;;19.37;10.82;;;;;;;;;;4209301;34;20113;-60
2021/04/12 09:39:20;;;;;;;17.15;8.43;;;;;;;;;;4207147;34;20257;-60
2021/04/12 09:41:52;;;;;;;14.48;7.90;;;;;;;;;;4199500;34;20136;-57
2021/04/12 09:45:00;;;;;;;20.27;9.00;;;;;;;;;;4219959;34;20098;-60
2021/04/12 09:47:57;;;;;;;18.12;10.00;;;;;;;;;;4208874;34;20183;-60
2021/04/12 09:50:52;;;;;;;22.85;9.15;;;;;;;;;;4220032;34;20482;-62
2021/04/12 09:53:55;;;;;;;18.15;9.00;;;;;;;;;;4203150;34;20561;-61
2021/04/12 09:56:55;;;;;;;8.60;6.47;;;;;;;;;;4219862;34;20097;-61
2021/04/12 09:59:38;;;;;;;12.27;7.90;;;;;;;;;;4220084;34;20124;-60
2021/04/12 10:02:42;;;;;;;12.82;7.93;;;;;;;;;;4219583;34;20123;-60
2021/04/12 10:05:11;;;;;;;10.05;6.90;;;;;;;;;;4219910;34;20108;-60
2021/04/12 10:08:01;;;;;;;12.70;7.25;;;;;;;;;;4206678;34;20145;-58
2021/04/12 10:11:04;;;;;;;12.85;6.20;;;;;;;;;;4219969;34;20517;-60
2021/04/12 10:13:42;;;;;;;10.10;6.93;;;;;;;;;;4205822;34;20196;-59
2021/04/12 10:16:10;;;;;;;15.07;8.65;;;;;;;;;;4219614;34;20149;-57
2021/04/12 10:18:43;;;;;;;13.90;8.27;;;;;;;;;;4195629;34;20141;-57
2021/04/12 10:21:21;;;;;;;16.92;7.32;;;;;;;;;;4206658;34;20133;-58
2021/04/12 10:24:23;;;;;;;9.52;7.03;;;;;;;;;;4219563;34;20095;-62
2021/04/12 10:26:54;;;;;;;16.45;7.90;;;;;;;;;;4182438;34;20106;-59
2021/04/12 10:29:28;;;;;;;13.65;7.87;;;;;;;;;;4219545;34;20132;-60
2021/04/12 10:31:55;;;;;;;16.17;8.38;;;;;;;;;;4206472;34;20109;-60
2021/04/12 10:34:26;;;;;;;11.57;7.05;;;;;;;;;;4195131;34;20100;-63
2021/04/12 10:36:59;;;;;;;16.85;7.35;;;;;;;;;;4207083;34;20482;-60
2021/04/12 10:39:26;;;;;;;18.42;7.47;;;;;;;;;;4195657;34;20113;-61
2021/04/12 10:42:06;;;;;;;11.55;7.25;;;;;;;;;;4206498;34;20232;-59
2021/04/12 10:44:36;;;;;;;7.53;5.85;;;;;;;;;;4194991;34;20124;-59
2021/04/12 10:47:28;;;;;;;11.18;6.75;;;;;;;;;;4195295;34;20113;-60
2021/04/12 10:50:06;;;;;;;11.38;5.97;;;;;;;;;;4217294;34;20121;-60
2021/04/12 10:53:04;;;;;;;12.50;7.40;;;;;;;;;;4195339;34;20216;-60
2021/04/12 10:55:51;;;;;;;12.95;7.50;;;;;;;;;;4206683;34;20201;-59
2021/04/12 10:58:39;;;;;;;12.32;6.60;;;;;;;;;;4192182;34;20149;-60
2021/04/12 11:01:07;;;;;;;13.05;6.15;;;;;;;;;;4184276;33;20105;-61
2021/04/12 11:03:44;;;;;;;15.82;6.55;;;;;;;;;;4195013;34;20129;-60
2021/04/12 11:06:29;;;;;;;19.15;7.75;;;;;;;;;;4206781;33;20133;-60
2021/04/12 11:08:58;;;;;;;8.82;5.62;;;;;;;;;;4219052;34;20537;-58
2021/04/12 11:11:30;;;;;;;7.72;5.60;;;;;;;;;;4206358;34;20110;-60
2021/04/12 11:14:16;;;;;;;8.30;6.28;;;;;;;;;;4194935;34;20189;-60
2021/04/12 11:16:57;;;;;;;8.45;6.15;;;;;;;;;;4202844;34;20104;-60
2021/04/12 11:19:32;;;;;;;13.45;7.62;;;;;;;;;;4202739;34;20105;-59
2021/04/12 11:22:00;;;;;;;17.05;8.20;;;;;;;;;;4219000;34;20133;-59
2021/04/12 11:24:52;;;;;;;16.33;7.30;;;;;;;;;;4219005;34;20136;-58
2021/04/12 11:27:37;;;;;;;12.27;7.00;;;;;;;;;;4205340;34;20221;-59
2021/04/12 11:30:20;;;;;;;13.65;7.62;;;;;;;;;;4207347;34;20224;-59
2021/04/12 11:33:25;;;;;;;11.73;7.28;;;;;;;;;;4207668;34;20109;-59
2021/04/12 11:36:10;;;;;;;14.30;7.80;;;;;;;;;;4219149;34;20148;-61
2021/04/12 11:38:45;;;;;;;;;;;;;;;;;;4219605;34;20097;-60
2021/04/12 11:41:29;;;;;;;10.88;7.53;;;;;;;;;;4218592;34;20017;-60
2021/04/12 11:43:58;;;;;;;15.40;7.50;;;;;;;;;;4219115;34;20121;-60
2021/04/12 11:46:24;;;;;;;13.20;7.85;;;;;;;;;;4206031;34;20137;-62
2021/04/12 11:48:54;;;;;;;13.18;8.23;;;;;;;;;;4218959;34;20093;-62
2021/04/12 11:51:41;;;;;;;16.92;8.15;;;;;;;;;;4205983;34;20623;-61
2021/04/12 11:54:09;;;;;;;11.52;6.25;;;;;;;;;;4218772;34;20121;-61
2021/04/12 11:57:08;;;;;;;11.98;6.95;;;;;;;;;;4193589;34;20102;-61
2021/04/12 11:59:59;;;;;;;13.02;6.53;;;;;;;;;;4179736;34;20573;-62
2021/04/12 12:03:05;;;;;;;10.23;6.78;;;;;;;;;;4218887;33;20125;-61
2021/04/12 12:05:32;;;;;;;12.70;6.45;;;;;;;;;;4159407;34;20108;-62
2021/04/12 12:08:06;;;;;;;12.35;6.70;;;;;;;;;;4218864;33;20129;-60
2021/04/12 12:10:52;;;;;;;13.10;7.15;;;;;;;;;;4206113;34;20090;-59
2021/04/12 12:13:38;;;;;;;15.70;6.35;;;;;;;;;;4206824;34;20128;-59
2021/04/12 12:16:19;;;;;;;12.00;6.47;;;;;;;;;;4218649;34;20560;-60
2021/04/12 12:19:12;;;;;;;15.18;7.45;;;;;;;;;;4195616;34;20695;-60
2021/04/12 12:21:52;;;;;;;12.02;6.55;;;;;;;;;;4218383;34;20546;-60
2021/04/12 12:24:34;;;;;;;12.05;6.40;;;;;;;;;;4205823;34;20212;-60
2021/04/12 12:27:00;;;;;;;16.48;5.78;;;;;;;;;;4194801;34;20288;-60
2021/04/12 12:29:28;;;;;;;11.20;5.80;;;;;;;;;;4218597;34;20109;-60
2021/04/12 12:31:57;;;;;;;11.40;5.62;;;;;;;;;;4194401;34;20100;-56
2021/04/12 12:34:38;;;;;;;26.60;6.85;;;;;;;;;;4219025;34;20120;-56
2021/04/12 12:37:19;;;;;;;8.40;4.72;;;;;;;;;;4218633;34;20248;-55
2021/04/12 12:39:46;;;;;;;8.95;5.43;;;;;;;;;;4217913;34;20592;-56
2021/04/12 12:42:32;;;;;;;9.82;6.03;;;;;;;;;;4205849;34;20097;-56
2021/04/12 12:45:07;;;;;;;;;;;;;;;;;;4218688;34;20124;-54
2021/04/12 12:47:36;;;;;;;13.80;6.82;;;;;;;;;;4218355;34;19965;-63
2021/04/12 12:50:05;;;;;;;11.90;7.47;;;;;;;;;;4205422;34;20176;-56
2021/04/12 12:52:40;;;;;;;13.43;6.55;;;;;;;;;;4205949;34;20230;-56
2021/04/12 12:55:15;;;;;;;14.02;6.62;;;;;;;;;;4194300;34;20114;-58
2021/04/12 12:57:42;;;;;;;18.60;6.93;;;;;;;;;;4206159;34;20143;-56
2021/04/12 13:00:07;;;;;;;11.50;6.18;;;;;;;;;;4218179;34;20615;-53
2021/04/12 13:02:36;;;;;;;11.93;6.93;;;;;;;;;;4218200;34;20105;-51
2021/04/12 13:05:10;;;;;;;15.75;6.00;;;;;;;;;;4205204;34;20524;-55
2021/04/12 13:07:37;;;;;;;10.65;5.72;;;;;;;;;;4194343;34;20136;-59
2021/04/12 13:10:18;;;;;;;8.23;5.75;;;;;;;;;;4206202;34;20144;-60
2021/04/12 13:12:46;;;;;;;13.90;6.20;;;;;;;;;;4199048;34;20085;-59
2021/04/12 13:15:26;;;;;;;15.18;5.82;;;;;;;;;;4199628;34;20116;-57
2021/04/12 13:18:10;;;;;;;17.10;5.93;;;;;;;;;;4210222;34;20136;-59
2021/04/12 13:20:46;;;;;;;20.12;7.10;;;;;;;;;;4222937;34;20113;-59
2021/04/12 13:23:17;;;;;;;7.35;5.18;;;;;;;;;;4222646;33;20173;-59
2021/04/12 13:25:49;;;;;;;10.95;4.72;;;;;;;;;;4209849;34;20105;-59
2021/04/12 13:28:17;;;;;;;11.73;6.03;;;;;;;;;;4209968;34;20184;-58
2021/04/12 13:30:56;;;;;;;9.52;5.65;;;;;;;;;;4210030;34;20530;-59
2021/04/12 13:33:53;;;;;;;14.30;5.85;;;;;;;;;;4210194;34;20096;-59
2021/04/12 13:36:34;;;;;;;12.05;5.85;;;;;;;;;;4208936;34;20112;-59
2021/04/12 13:39:41;;;;;;;10.10;5.75;;;;;;;;;;4198938;34;20140;-59
2021/04/12 13:42:27;;;;;;;11.60;6.75;;;;;;;;;;4222023;33;20686;-58
2021/04/12 13:44:55;;;;;;;15.65;6.50;;;;;;;;;;4209611;34;20129;-58
2021/04/12 13:47:45;;;;;;;11.65;6.32;;;;;;;;;;4208595;34;20224;-57
2021/04/12 13:50:31;;;;;;;11.35;6.95;;;;;;;;;;4213641;34;20112;-61
2021/04/12 13:53:04;;;;;;;12.27;7.80;;;;;;;;;;4221981;33;20444;-63
2021/04/12 13:55:42;;;;;;;16.52;9.18;;;;;;;;;;4194844;34;20545;-59
2021/04/12 13:58:14;;;;;;;15.52;9.20;;;;;;;;;;4195953;34;20193;-57
2021/04/12 14:00:49;;;;;;;17.37;8.80;;;;;;;;;;4212358;34;20113;-57
2021/04/12 14:03:37;;;;;;;32.00;10.20;;;;;;;;;;4209491;34;20106;-57
2021/04/12 14:06:05;;;;;;;14.87;8.32;;;;;;;;;;4209537;34;20092;-57
2021/04/12 14:08:34;;;;;;;14.80;7.57;;;;;;;;;;4221875;34;20125;-55
2021/04/12 14:11:24;;;;;;;16.10;7.15;;;;;;;;;;4197825;34;20086;-59
2021/04/12 14:14:36;;;;;;;19.62;9.18;;;;;;;;;;4199386;34;20096;-52
2021/04/12 14:17:09;;;;;;;8.25;4.62;;;;;;;;;;4222132;34;20109;-53
2021/04/12 14:19:42;;;;;;;10.13;5.22;;;;;;;;;;4196031;34;20106;-55
2021/04/12 14:22:24;;;;;;;8.27;5.43;;;;;;;;;;4207086;34;20120;-58
2021/04/12 14:24:55;;;;;;;15.02;5.90;;;;;;;;;;4219909;34;20124;-58
2021/04/12 14:27:26;;;;;;;10.07;5.97;;;;;;;;;;4195405;34;20505;-57
2021/04/12 14:30:02;;;;;;;10.93;5.93;;;;;;;;;;4206829;34;20128;-58
2021/04/12 14:32:32;;;;;;;7.57;5.35;;;;;;;;;;4184540;34;20112;-58
2021/04/12 14:35:04;;;;;;;9.20;5.62;;;;;;;;;;4195626;34;20431;-58
2021/04/12 14:37:31;;;;;;;10.27;6.03;;;;;;;;;;4219699;34;20209;-57
2021/04/12 14:40:29;;;;;;;8.85;5.30;;;;;;;;;;4206889;34;20533;-57
2021/04/12 14:42:58;;;;;;;12.35;6.35;;;;;;;;;;4207442;34;20120;-56
2021/04/12 14:45:28;;;;;;;14.57;5.65;;;;;;;;;;4219391;34;20098;-60
2021/04/12 14:48:02;;;;;;;10.73;5.70;;;;;;;;;;4207043;34;20184;-57
2021/04/12 14:50:28;;;;;;;10.85;5.90;;;;;;;;;;4192915;34;20117;-60
2021/04/12 14:53:09;;;;;;;14.27;6.53;;;;;;;;;;4206315;34;20214;-61
2021/04/12 14:55:44;;;;;;;15.07;6.30;;;;;;;;;;4206879;34;20141;-60
2021/04/12 14:58:10;;;;;;;;;;;;;;;;;;4207449;34;20110;-59
2021/04/12 15:00:46;;;;;;;12.27;6.25;;;;;;;;;;4219408;34;20084;-58
2021/04/12 15:03:15;;;;;;;14.82;6.97;;;;;;;;;;4206557;34;20561;-58
2021/04/12 15:05:44;;;;;;;18.33;7.82;;;;;;;;;;4206697;34;20121;-59
2021/04/12 15:08:32;;;;;;;16.25;6.65;;;;;;;;;;4195088;34;20120;-58
2021/04/12 15:11:15;;;;;;;43.83;10.38;;;;;;;;;;4208239;33;20093;-58
2021/04/12 15:13:58;;;;;;;22.83;11.98;;;;;;;;;;4218033;34;20561;-59
2021/04/12 15:16:50;;;;;;;22.70;11.52;;;;;;;;;;4217969;34;20596;-62
2021/04/12 15:19:26;;;;;;;23.23;12.30;;;;;;;;;;4217345;34;20208;-58
2021/04/12 15:22:04;;;;;;;23.58;10.35;;;;;;;;;;4205870;34;20549;-57
2021/04/12 15:24:35;;;;;;;15.20;7.50;;;;;;;;;;4206571;34;20121;-59
2021/04/12 15:27:01;;;;;;;12.90;7.70;;;;;;;;;;4206535;34;20196;-58
2021/04/12 15:29:36;;;;;;;14.35;7.82;;;;;;;;;;4206712;34;20094;-57
2021/04/12 15:32:12;;;;;;;13.97;6.33;;;;;;;;;;4206359;34;20189;-56
2021/04/12 15:34:45;;;;;;;11.98;7.15;;;;;;;;;;4201613;34;20113;-58
2021/04/12 15:37:22;;;;;;;16.15;7.82;;;;;;;;;;4195093;34;20193;-61
2021/04/12 15:39:49;;;;;;;16.25;9.27;;;;;;;;;;4218118;34;20412;-59
2021/04/12 15:42:20;;;;;;;16.42;9.27;;;;;;;;;;4206084;34;20548;-58
2021/04/12 15:44:49;;;;;;;18.87;9.25;;;;;;;;;;4203598;34;20449;-59
2021/04/12 15:47:25;;;;;;;17.90;9.05;;;;;;;;;;4194864;34;20312;-60
2021/04/12 15:50:14;;;;;;;15.73;8.65;;;;;;;;;;4192294;34;20454;-62
2021/04/12 15:52:42;;;;;;;15.48;8.80;;;;;;;;;;4183999;34;20113;-59
2021/04/12 15:55:28;;;;;;;19.42;8.88;;;;;;;;;;4206323;34;20125;-63
2021/04/12 15:58:07;;;;;;;17.10;10.63;;;;;;;;;;4196730;34;20234;-61
2021/04/12 16:00:37;;;;;;;14.27;9.70;;;;;;;;;;4205744;34;20062;-61
2021/04/12 16:03:11;;;;;;;20.83;11.27;;;;;;;;;;4195036;34;20109;-57
2021/04/12 16:06:01;;;;;;;20.00;10.70;;;;;;;;;;4206191;34;20135;-58
2021/04/12 16:08:33;;;;;;;18.98;11.30;;;;;;;;;;4217757;33;20122;-57
2021/04/12 16:11:30;;;;;;;22.27;12.20;;;;;;;;;;4206837;34;20512;-60
2021/04/12 16:14:13;;;;;;;19.73;12.05;;;;;;;;;;4207747;34;20173;-57